sensor_id;sensor_type;location;lat;lon;timestamp;P1;durP1;ratioP1;P2;durP2;ratioP2
68951;SDS011;56000;51.146;17.112;2024-01-15T00:02:01;21.20;;;9.80;;
68951;SDS011;56000;51.146;17.112;2024-01-15T00:04:38;16.40;;;8.20;;
68951;SDS011;56000;51.146;17.112;2024-01-15T00:07:12;18.40;;;9.20;;
68951;SDS011;56000;51.146;17.112;2024-01-15T00:09:45;14.30;;;7.50;;
68951;SDS011;56000;51.146;17.112;2024-01-15T00:12:18;12.00;;;6.70;;
68951;SDS011;56000;51.146;17.112;2024-01-15T00:14:50;14.30;;;6.60;;
68951;SDS011;56000;51.146;17.112;2024-01-15T00:17:24;12.20;;;6.30;;
68951;SDS011;56000;51.146;17.112;2024-01-15T00:19:57;14.90;;;6.50;;
68951;SDS011;56000;51.146;17.112;2024-01-15T00:22:30;11.10;;;5.60;;
68951;SDS011;56000;51.146;17.112;2024-01-15T00:25:05;12.90;;;5.60;;
68951;SDS011;56000;51.146;17.112;2024-01-15T00:27:39;15.40;;;6.60;;
68951;SDS011;56000;51.146;17.112;2024-01-15T00:30:13;11.90;;;6.10;;
68951;SDS011;56000;51.146;17.112;2024-01-15T00:32:46;10.70;;;5.20;;
68951;SDS011;56000;51.146;17.112;2024-01-15T00:35:19;11.10;;;5.70;;
68951;SDS011;56000;51.146;17.112;2024-01-15T00:37:52;11.00;;;5.50;;
68951;SDS011;56000;51.146;17.112;2024-01-15T00:40:24;10.10;;;5.80;;
68951;SDS011;56000;51.146;17.112;2024-01-15T00:42:57;11.50;;;5.50;;
68951;SDS011;56000;51.146;17.112;2024-01-15T00:45:30;11.30;;;5.50;;
68951;SDS011;56000;51.146;17.112;2024-01-15T00:48:03;14.20;;;6.30;;
68951;SDS011;56000;51.146;17.112;2024-01-15T00:50:36;12.80;;;6.00;;
68951;SDS011;56000;51.146;17.112;2024-01-15T00:53:09;14.10;;;7.20;;
68951;SDS011;56000;51.146;17.112;2024-01-15T00:55:42;11.70;;;5.50;;
68951;SDS011;56000;51.146;17.112;2024-01-15T00:58:15;16.00;;;7.60;;
68951;SDS011;56000;51.146;17.112;2024-01-15T01:00:48;13.40;;;6.90;;
68951;SDS011;56000;51.146;17.112;2024-01-15T01:03:20;16.70;;;7.30;;
68951;SDS011;56000;51.146;17.112;2024-01-15T01:05:54;10.30;;;5.50;;
68951;SDS011;56000;51.146;17.112;2024-01-15T01:08:27;13.60;;;6.50;;
68951;SDS011;56000;51.146;17.112;2024-01-15T01:10:59;11.90;;;5.90;;
68951;SDS011;56000;51.146;17.112;2024-01-15T01:13:32;13.10;;;6.80;;
68951;SDS011;56000;51.146;17.112;2024-01-15T01:16:05;11.50;;;6.30;;
68951;SDS011;56000;51.146;17.112;2024-01-15T01:18:38;13.60;;;6.50;;
68951;SDS011;56000;51.146;17.112;2024-01-15T01:21:11;10.00;;;5.60;;
68951;SDS011;56000;51.146;17.112;2024-01-15T01:23:44;20.00;;;7.00;;
68951;SDS011;56000;51.146;17.112;2024-01-15T01:26:18;11.70;;;6.70;;
68951;SDS011;56000;51.146;17.112;2024-01-15T01:28:51;11.40;;;6.10;;
68951;SDS011;56000;51.146;17.112;2024-01-15T01:31:24;14.60;;;6.80;;
68951;SDS011;56000;51.146;17.112;2024-01-15T01:33:57;11.30;;;6.20;;
68951;SDS011;56000;51.146;17.112;2024-01-15T01:36:31;15.70;;;6.80;;
68951;SDS011;56000;51.146;17.112;2024-01-15T01:39:04;13.50;;;6.10;;
68951;SDS011;56000;51.146;17.112;2024-01-15T01:41:37;10.60;;;6.20;;
68951;SDS011;56000;51.146;17.112;2024-01-15T01:44:10;11.90;;;6.40;;
68951;SDS011;56000;51.146;17.112;2024-01-15T01:46:43;12.40;;;6.50;;
68951;SDS011;56000;51.146;17.112;2024-01-15T01:49:16;14.00;;;6.70;;
68951;SDS011;56000;51.146;17.112;2024-01-15T01:51:49;11.90;;;6.90;;
68951;SDS011;56000;51.146;17.112;2024-01-15T01:54:22;10.80;;;5.60;;
68951;SDS011;56000;51.146;17.112;2024-01-15T01:56:56;13.60;;;6.10;;
68951;SDS011;56000;51.146;17.112;2024-01-15T01:59:30;11.70;;;7.50;;
68951;SDS011;56000;51.146;17.112;2024-01-15T02:02:05;13.60;;;6.30;;
68951;SDS011;56000;51.146;17.112;2024-01-15T02:04:38;11.80;;;6.70;;
68951;SDS011;56000;51.146;17.112;2024-01-15T02:07:11;15.60;;;7.60;;
68951;SDS011;56000;51.146;17.112;2024-01-15T02:09:46;12.50;;;7.50;;
68951;SDS011;56000;51.146;17.112;2024-01-15T02:12:20;11.90;;;7.10;;
68951;SDS011;56000;51.146;17.112;2024-01-15T02:14:53;16.00;;;8.00;;
68951;SDS011;56000;51.146;17.112;2024-01-15T02:17:26;14.00;;;7.80;;
68951;SDS011;56000;51.146;17.112;2024-01-15T02:19:59;14.20;;;8.00;;
68951;SDS011;56000;51.146;17.112;2024-01-15T02:22:31;16.60;;;8.80;;
68951;SDS011;56000;51.146;17.112;2024-01-15T02:25:05;15.40;;;9.00;;
68951;SDS011;56000;51.146;17.112;2024-01-15T02:27:38;24.00;;;9.90;;
68951;SDS011;56000;51.146;17.112;2024-01-15T02:30:12;14.40;;;7.20;;
68951;SDS011;56000;51.146;17.112;2024-01-15T02:32:46;18.50;;;9.40;;
68951;SDS011;56000;51.146;17.112;2024-01-15T02:35:19;17.50;;;9.40;;
68951;SDS011;56000;51.146;17.112;2024-01-15T02:37:52;15.90;;;8.10;;
68951;SDS011;56000;51.146;17.112;2024-01-15T02:40:25;17.10;;;7.60;;
68951;SDS011;56000;51.146;17.112;2024-01-15T02:42:58;12.70;;;6.20;;
68951;SDS011;56000;51.146;17.112;2024-01-15T02:45:30;11.60;;;6.70;;
68951;SDS011;56000;51.146;17.112;2024-01-15T02:48:04;18.60;;;8.20;;
68951;SDS011;56000;51.146;17.112;2024-01-15T02:50:37;13.20;;;7.60;;
68951;SDS011;56000;51.146;17.112;2024-01-15T02:53:10;13.70;;;7.60;;
68951;SDS011;56000;51.146;17.112;2024-01-15T02:55:43;13.80;;;7.50;;
68951;SDS011;56000;51.146;17.112;2024-01-15T02:58:16;12.00;;;5.60;;
68951;SDS011;56000;51.146;17.112;2024-01-15T03:00:48;15.30;;;8.40;;
68951;SDS011;56000;51.146;17.112;2024-01-15T03:03:21;13.50;;;6.30;;
68951;SDS011;56000;51.146;17.112;2024-01-15T03:05:54;14.60;;;8.20;;
68951;SDS011;56000;51.146;17.112;2024-01-15T03:08:28;12.80;;;7.10;;
68951;SDS011;56000;51.146;17.112;2024-01-15T03:11:00;16.00;;;8.20;;
68951;SDS011;56000;51.146;17.112;2024-01-15T03:13:36;15.30;;;7.80;;
68951;SDS011;56000;51.146;17.112;2024-01-15T03:16:09;18.30;;;8.30;;
68951;SDS011;56000;51.146;17.112;2024-01-15T03:18:42;16.40;;;7.90;;
68951;SDS011;56000;51.146;17.112;2024-01-15T03:21:15;14.50;;;6.20;;
68951;SDS011;56000;51.146;17.112;2024-01-15T03:23:48;14.50;;;6.20;;
68951;SDS011;56000;51.146;17.112;2024-01-15T03:26:20;9.00;;;5.20;;
68951;SDS011;56000;51.146;17.112;2024-01-15T03:28:53;11.20;;;5.30;;
68951;SDS011;56000;51.146;17.112;2024-01-15T03:31:26;9.50;;;5.40;;
68951;SDS011;56000;51.146;17.112;2024-01-15T03:33:59;11.50;;;5.50;;
68951;SDS011;56000;51.146;17.112;2024-01-15T03:36:32;12.20;;;6.10;;
68951;SDS011;56000;51.146;17.112;2024-01-15T03:39:04;11.00;;;5.60;;
68951;SDS011;56000;51.146;17.112;2024-01-15T03:41:37;13.00;;;5.90;;
68951;SDS011;56000;51.146;17.112;2024-01-15T03:44:10;17.40;;;6.90;;
68951;SDS011;56000;51.146;17.112;2024-01-15T03:46:43;10.90;;;5.90;;
68951;SDS011;56000;51.146;17.112;2024-01-15T03:49:16;9.30;;;4.80;;
68951;SDS011;56000;51.146;17.112;2024-01-15T03:51:49;10.00;;;5.50;;
68951;SDS011;56000;51.146;17.112;2024-01-15T03:54:22;10.10;;;4.70;;
68951;SDS011;56000;51.146;17.112;2024-01-15T03:56:54;13.00;;;5.10;;
68951;SDS011;56000;51.146;17.112;2024-01-15T03:59:27;9.20;;;4.60;;
68951;SDS011;56000;51.146;17.112;2024-01-15T04:02:00;12.50;;;5.00;;
68951;SDS011;56000;51.146;17.112;2024-01-15T04:04:33;8.70;;;4.90;;
68951;SDS011;56000;51.146;17.112;2024-01-15T04:07:06;9.00;;;5.20;;
68951;SDS011;56000;51.146;17.112;2024-01-15T04:09:39;9.00;;;4.70;;
68951;SDS011;56000;51.146;17.112;2024-01-15T04:12:12;10.60;;;5.10;;
68951;SDS011;56000;51.146;17.112;2024-01-15T04:14:44;10.10;;;5.20;;
68951;SDS011;56000;51.146;17.112;2024-01-15T04:17:17;10.30;;;5.30;;
68951;SDS011;56000;51.146;17.112;2024-01-15T04:19:51;8.90;;;5.20;;
68951;SDS011;56000;51.146;17.112;2024-01-15T04:22:24;6.80;;;4.40;;
68951;SDS011;56000;51.146;17.112;2024-01-15T04:24:57;10.30;;;5.00;;
68951;SDS011;56000;51.146;17.112;2024-01-15T04:27:30;8.80;;;5.10;;
68951;SDS011;56000;51.146;17.112;2024-01-15T04:30:04;7.80;;;4.50;;
68951;SDS011;56000;51.146;17.112;2024-01-15T04:32:38;7.70;;;4.70;;
68951;SDS011;56000;51.146;17.112;2024-01-15T04:35:11;8.20;;;4.90;;
68951;SDS011;56000;51.146;17.112;2024-01-15T04:37:44;11.70;;;5.50;;
68951;SDS011;56000;51.146;17.112;2024-01-15T04:40:17;14.60;;;6.50;;
68951;SDS011;56000;51.146;17.112;2024-01-15T04:42:50;16.30;;;6.40;;
68951;SDS011;56000;51.146;17.112;2024-01-15T04:45:23;10.20;;;5.00;;
68951;SDS011;56000;51.146;17.112;2024-01-15T04:47:58;8.60;;;4.70;;
68951;SDS011;56000;51.146;17.112;2024-01-15T04:50:31;7.70;;;4.50;;
68951;SDS011;56000;51.146;17.112;2024-01-15T04:53:04;6.00;;;3.90;;
68951;SDS011;56000;51.146;17.112;2024-01-15T04:55:40;8.50;;;3.70;;
68951;SDS011;56000;51.146;17.112;2024-01-15T04:58:13;8.70;;;3.80;;
68951;SDS011;56000;51.146;17.112;2024-01-15T05:00:46;9.10;;;4.50;;
68951;SDS011;56000;51.146;17.112;2024-01-15T05:03:19;8.50;;;4.90;;
68951;SDS011;56000;51.146;17.112;2024-01-15T05:05:52;6.70;;;4.10;;
68951;SDS011;56000;51.146;17.112;2024-01-15T05:08:25;9.00;;;5.00;;
68951;SDS011;56000;51.146;17.112;2024-01-15T05:10:58;7.70;;;4.70;;
68951;SDS011;56000;51.146;17.112;2024-01-15T05:13:31;10.20;;;4.90;;
68951;SDS011;56000;51.146;17.112;2024-01-15T05:16:04;9.30;;;5.20;;
68951;SDS011;56000;51.146;17.112;2024-01-15T05:18:37;7.60;;;4.70;;
68951;SDS011;56000;51.146;17.112;2024-01-15T05:21:10;8.90;;;5.00;;
68951;SDS011;56000;51.146;17.112;2024-01-15T05:23:43;10.60;;;4.80;;
68951;SDS011;56000;51.146;17.112;2024-01-15T05:26:16;11.20;;;4.70;;
68951;SDS011;56000;51.146;17.112;2024-01-15T05:28:49;14.80;;;5.80;;
68951;SDS011;56000;51.146;17.112;2024-01-15T05:31:21;12.60;;;5.10;;
68951;SDS011;56000;51.146;17.112;2024-01-15T05:33:54;7.80;;;4.30;;
68951;SDS011;56000;51.146;17.112;2024-01-15T05:36:27;5.80;;;3.70;;
68951;SDS011;56000;51.146;17.112;2024-01-15T05:39:00;8.50;;;4.10;;
68951;SDS011;56000;51.146;17.112;2024-01-15T05:41:33;5.90;;;3.50;;
68951;SDS011;56000;51.146;17.112;2024-01-15T05:44:06;7.40;;;4.50;;
68951;SDS011;56000;51.146;17.112;2024-01-15T05:46:39;5.50;;;3.60;;
68951;SDS011;56000;51.146;17.112;2024-01-15T05:49:12;6.70;;;4.20;;
68951;SDS011;56000;51.146;17.112;2024-01-15T05:51:45;9.00;;;4.20;;
68951;SDS011;56000;51.146;17.112;2024-01-15T05:54:19;7.20;;;4.20;;
68951;SDS011;56000;51.146;17.112;2024-01-15T05:56:52;12.30;;;5.90;;
68951;SDS011;56000;51.146;17.112;2024-01-15T05:59:24;6.10;;;3.70;;
68951;SDS011;56000;51.146;17.112;2024-01-15T06:02:01;9.60;;;5.60;;
68951;SDS011;56000;51.146;17.112;2024-01-15T06:04:34;11.80;;;5.90;;
68951;SDS011;56000;51.146;17.112;2024-01-15T06:07:07;11.60;;;6.10;;
68951;SDS011;56000;51.146;17.112;2024-01-15T06:09:40;11.00;;;6.00;;
68951;SDS011;56000;51.146;17.112;2024-01-15T06:12:13;12.60;;;5.60;;
68951;SDS011;56000;51.146;17.112;2024-01-15T06:14:45;11.60;;;5.50;;
68951;SDS011;56000;51.146;17.112;2024-01-15T06:17:18;7.70;;;4.10;;
68951;SDS011;56000;51.146;17.112;2024-01-15T06:19:51;11.40;;;5.10;;
68951;SDS011;56000;51.146;17.112;2024-01-15T06:22:24;10.30;;;5.50;;
68951;SDS011;56000;51.146;17.112;2024-01-15T06:24:57;9.00;;;4.80;;
68951;SDS011;56000;51.146;17.112;2024-01-15T06:27:30;7.20;;;3.90;;
68951;SDS011;56000;51.146;17.112;2024-01-15T06:30:03;10.50;;;5.20;;
68951;SDS011;56000;51.146;17.112;2024-01-15T06:32:37;8.80;;;5.00;;
68951;SDS011;56000;51.146;17.112;2024-01-15T06:35:10;12.40;;;5.50;;
68951;SDS011;56000;51.146;17.112;2024-01-15T06:37:43;10.40;;;5.00;;
68951;SDS011;56000;51.146;17.112;2024-01-15T06:40:16;10.90;;;5.10;;
68951;SDS011;56000;51.146;17.112;2024-01-15T06:42:49;8.60;;;5.00;;
68951;SDS011;56000;51.146;17.112;2024-01-15T06:45:22;8.60;;;4.80;;
68951;SDS011;56000;51.146;17.112;2024-01-15T06:47:55;9.60;;;5.10;;
68951;SDS011;56000;51.146;17.112;2024-01-15T06:50:28;12.90;;;5.10;;
68951;SDS011;56000;51.146;17.112;2024-01-15T06:53:00;11.80;;;5.40;;
68951;SDS011;56000;51.146;17.112;2024-01-15T06:55:33;11.80;;;5.70;;
68951;SDS011;56000;51.146;17.112;2024-01-15T06:58:06;9.80;;;5.30;;
68951;SDS011;56000;51.146;17.112;2024-01-15T07:00:39;8.90;;;5.00;;
68951;SDS011;56000;51.146;17.112;2024-01-15T07:03:12;9.70;;;5.60;;
68951;SDS011;56000;51.146;17.112;2024-01-15T07:05:45;9.20;;;4.90;;
68951;SDS011;56000;51.146;17.112;2024-01-15T07:08:17;7.90;;;4.60;;
68951;SDS011;56000;51.146;17.112;2024-01-15T07:10:50;10.10;;;5.20;;
68951;SDS011;56000;51.146;17.112;2024-01-15T07:13:23;7.30;;;4.40;;
68951;SDS011;56000;51.146;17.112;2024-01-15T07:15:56;10.20;;;4.70;;
68951;SDS011;56000;51.146;17.112;2024-01-15T07:18:28;9.80;;;5.10;;
68951;SDS011;56000;51.146;17.112;2024-01-15T07:21:01;9.40;;;5.00;;
68951;SDS011;56000;51.146;17.112;2024-01-15T07:23:35;8.90;;;4.50;;
68951;SDS011;56000;51.146;17.112;2024-01-15T07:26:08;10.60;;;6.20;;
68951;SDS011;56000;51.146;17.112;2024-01-15T07:28:41;11.70;;;5.60;;
68951;SDS011;56000;51.146;17.112;2024-01-15T07:31:13;8.30;;;4.20;;
68951;SDS011;56000;51.146;17.112;2024-01-15T07:33:48;10.40;;;5.30;;
68951;SDS011;56000;51.146;17.112;2024-01-15T07:36:21;8.60;;;5.00;;
68951;SDS011;56000;51.146;17.112;2024-01-15T07:38:53;11.40;;;5.40;;
68951;SDS011;56000;51.146;17.112;2024-01-15T07:41:26;7.80;;;4.40;;
68951;SDS011;56000;51.146;17.112;2024-01-15T07:43:59;8.60;;;4.60;;
68951;SDS011;56000;51.146;17.112;2024-01-15T07:46:31;9.10;;;4.10;;
68951;SDS011;56000;51.146;17.112;2024-01-15T07:49:04;9.90;;;4.70;;
68951;SDS011;56000;51.146;17.112;2024-01-15T07:51:37;13.90;;;5.80;;
68951;SDS011;56000;51.146;17.112;2024-01-15T07:54:10;8.60;;;5.20;;
68951;SDS011;56000;51.146;17.112;2024-01-15T07:56:56;10.10;;;5.10;;
68951;SDS011;56000;51.146;17.112;2024-01-15T07:59:30;11.20;;;5.80;;
68951;SDS011;56000;51.146;17.112;2024-01-15T08:02:03;11.90;;;5.00;;
68951;SDS011;56000;51.146;17.112;2024-01-15T08:04:35;10.00;;;5.20;;
68951;SDS011;56000;51.146;17.112;2024-01-15T08:07:09;9.90;;;4.70;;
68951;SDS011;56000;51.146;17.112;2024-01-15T08:09:43;8.70;;;4.50;;
68951;SDS011;56000;51.146;17.112;2024-01-15T08:12:17;11.90;;;4.00;;
68951;SDS011;56000;51.146;17.112;2024-01-15T08:14:50;8.20;;;4.30;;
68951;SDS011;56000;51.146;17.112;2024-01-15T08:17:23;11.70;;;5.10;;
68951;SDS011;56000;51.146;17.112;2024-01-15T08:19:58;7.10;;;3.50;;
68951;SDS011;56000;51.146;17.112;2024-01-15T08:22:31;6.90;;;4.30;;
68951;SDS011;56000;51.146;17.112;2024-01-15T08:25:05;7.90;;;4.40;;
68951;SDS011;56000;51.146;17.112;2024-01-15T08:27:38;7.70;;;3.60;;
68951;SDS011;56000;51.146;17.112;2024-01-15T08:30:12;7.90;;;3.60;;
68951;SDS011;56000;51.146;17.112;2024-01-15T08:32:46;6.10;;;3.80;;
68951;SDS011;56000;51.146;17.112;2024-01-15T08:35:19;9.30;;;3.50;;
68951;SDS011;56000;51.146;17.112;2024-01-15T08:37:52;12.70;;;5.00;;
68951;SDS011;56000;51.146;17.112;2024-01-15T08:40:25;8.60;;;4.10;;
68951;SDS011;56000;51.146;17.112;2024-01-15T08:42:58;10.60;;;3.90;;
68951;SDS011;56000;51.146;17.112;2024-01-15T08:45:31;10.40;;;4.40;;
68951;SDS011;56000;51.146;17.112;2024-01-15T08:48:05;9.50;;;4.10;;
68951;SDS011;56000;51.146;17.112;2024-01-15T08:50:38;9.50;;;4.50;;
68951;SDS011;56000;51.146;17.112;2024-01-15T08:53:10;7.40;;;4.10;;
68951;SDS011;56000;51.146;17.112;2024-01-15T08:55:43;9.30;;;3.80;;
68951;SDS011;56000;51.146;17.112;2024-01-15T08:58:17;9.50;;;4.40;;
68951;SDS011;56000;51.146;17.112;2024-01-15T09:00:50;8.60;;;3.40;;
68951;SDS011;56000;51.146;17.112;2024-01-15T09:03:23;5.90;;;2.40;;
68951;SDS011;56000;51.146;17.112;2024-01-15T09:05:56;12.30;;;4.30;;
68951;SDS011;56000;51.146;17.112;2024-01-15T09:08:29;7.00;;;3.40;;
68951;SDS011;56000;51.146;17.112;2024-01-15T09:11:02;10.10;;;3.50;;
68951;SDS011;56000;51.146;17.112;2024-01-15T09:13:34;9.00;;;3.90;;
68951;SDS011;56000;51.146;17.112;2024-01-15T09:16:08;7.10;;;3.50;;
68951;SDS011;56000;51.146;17.112;2024-01-15T09:18:41;11.20;;;3.60;;
68951;SDS011;56000;51.146;17.112;2024-01-15T09:21:14;7.20;;;3.70;;
68951;SDS011;56000;51.146;17.112;2024-01-15T09:23:46;9.20;;;3.60;;
68951;SDS011;56000;51.146;17.112;2024-01-15T09:26:19;8.20;;;3.40;;
68951;SDS011;56000;51.146;17.112;2024-01-15T09:28:53;7.70;;;3.30;;
68951;SDS011;56000;51.146;17.112;2024-01-15T09:31:25;8.30;;;3.00;;
68951;SDS011;56000;51.146;17.112;2024-01-15T09:33:58;9.60;;;3.30;;
68951;SDS011;56000;51.146;17.112;2024-01-15T09:36:32;8.90;;;3.70;;
68951;SDS011;56000;51.146;17.112;2024-01-15T09:39:10;11.40;;;3.10;;
68951;SDS011;56000;51.146;17.112;2024-01-15T09:41:43;8.00;;;3.30;;
68951;SDS011;56000;51.146;17.112;2024-01-15T09:44:17;8.50;;;3.40;;
68951;SDS011;56000;51.146;17.112;2024-01-15T09:46:51;8.60;;;3.30;;
68951;SDS011;56000;51.146;17.112;2024-01-15T09:49:25;9.10;;;3.70;;
68951;SDS011;56000;51.146;17.112;2024-01-15T09:51:59;7.30;;;3.60;;
68951;SDS011;56000;51.146;17.112;2024-01-15T09:54:40;6.80;;;3.30;;
68951;SDS011;56000;51.146;17.112;2024-01-15T09:57:17;5.10;;;2.90;;
68951;SDS011;56000;51.146;17.112;2024-01-15T09:59:52;10.50;;;3.70;;
68951;SDS011;56000;51.146;17.112;2024-01-15T10:02:25;9.30;;;3.40;;
68951;SDS011;56000;51.146;17.112;2024-01-15T10:04:58;5.50;;;3.00;;
68951;SDS011;56000;51.146;17.112;2024-01-15T10:07:31;11.00;;;3.60;;
68951;SDS011;56000;51.146;17.112;2024-01-15T10:10:09;7.30;;;3.40;;
68951;SDS011;56000;51.146;17.112;2024-01-15T10:12:43;5.50;;;2.90;;
68951;SDS011;56000;51.146;17.112;2024-01-15T10:15:16;5.60;;;2.80;;
68951;SDS011;56000;51.146;17.112;2024-01-15T10:17:48;6.00;;;3.10;;
68951;SDS011;56000;51.146;17.112;2024-01-15T10:20:21;6.70;;;3.10;;
68951;SDS011;56000;51.146;17.112;2024-01-15T10:22:54;10.20;;;3.50;;
68951;SDS011;56000;51.146;17.112;2024-01-15T10:25:28;8.40;;;3.50;;
68951;SDS011;56000;51.146;17.112;2024-01-15T10:28:04;6.50;;;2.90;;
68951;SDS011;56000;51.146;17.112;2024-01-15T10:30:37;6.30;;;3.10;;
68951;SDS011;56000;51.146;17.112;2024-01-15T10:33:10;9.40;;;3.50;;
68951;SDS011;56000;51.146;17.112;2024-01-15T10:35:45;7.20;;;3.50;;
68951;SDS011;56000;51.146;17.112;2024-01-15T10:38:18;8.60;;;3.10;;
68951;SDS011;56000;51.146;17.112;2024-01-15T10:40:53;7.30;;;3.00;;
68951;SDS011;56000;51.146;17.112;2024-01-15T10:43:26;9.80;;;3.10;;
68951;SDS011;56000;51.146;17.112;2024-01-15T10:45:59;7.50;;;3.70;;
68951;SDS011;56000;51.146;17.112;2024-01-15T10:48:32;8.70;;;3.30;;
68951;SDS011;56000;51.146;17.112;2024-01-15T10:51:06;9.10;;;3.30;;
68951;SDS011;56000;51.146;17.112;2024-01-15T10:53:41;5.90;;;3.30;;
68951;SDS011;56000;51.146;17.112;2024-01-15T10:56:15;6.20;;;3.40;;
68951;SDS011;56000;51.146;17.112;2024-01-15T10:58:48;6.80;;;3.30;;
68951;SDS011;56000;51.146;17.112;2024-01-15T11:01:27;8.60;;;3.40;;
68951;SDS011;56000;51.146;17.112;2024-01-15T11:04:01;7.40;;;3.30;;
68951;SDS011;56000;51.146;17.112;2024-01-15T11:06:45;6.80;;;3.20;;
68951;SDS011;56000;51.146;17.112;2024-01-15T11:09:19;6.30;;;2.90;;
68951;SDS011;56000;51.146;17.112;2024-01-15T11:12:07;6.40;;;3.40;;
68951;SDS011;56000;51.146;17.112;2024-01-15T11:14:46;9.40;;;3.40;;
68951;SDS011;56000;51.146;17.112;2024-01-15T11:17:20;7.60;;;3.50;;
68951;SDS011;56000;51.146;17.112;2024-01-15T11:19:53;6.20;;;2.90;;
68951;SDS011;56000;51.146;17.112;2024-01-15T11:22:50;7.30;;;2.70;;
68951;SDS011;56000;51.146;17.112;2024-01-15T11:25:23;4.80;;;2.70;;
68951;SDS011;56000;51.146;17.112;2024-01-15T11:28:05;8.30;;;3.50;;
68951;SDS011;56000;51.146;17.112;2024-01-15T11:30:38;10.50;;;3.50;;
68951;SDS011;56000;51.146;17.112;2024-01-15T11:33:33;8.40;;;3.50;;
68951;SDS011;56000;51.146;17.112;2024-01-15T11:36:07;7.20;;;2.80;;
68951;SDS011;56000;51.146;17.112;2024-01-15T11:38:41;7.90;;;3.10;;
68951;SDS011;56000;51.146;17.112;2024-01-15T11:41:16;7.60;;;3.30;;
68951;SDS011;56000;51.146;17.112;2024-01-15T11:43:50;5.40;;;3.00;;
68951;SDS011;56000;51.146;17.112;2024-01-15T11:46:23;8.60;;;3.10;;
68951;SDS011;56000;51.146;17.112;2024-01-15T11:49:03;5.40;;;3.10;;
68951;SDS011;56000;51.146;17.112;2024-01-15T11:51:37;4.30;;;2.80;;
68951;SDS011;56000;51.146;17.112;2024-01-15T11:54:10;9.30;;;3.20;;
68951;SDS011;56000;51.146;17.112;2024-01-15T11:56:45;8.30;;;3.30;;
68951;SDS011;56000;51.146;17.112;2024-01-15T11:59:18;6.10;;;2.90;;
68951;SDS011;56000;51.146;17.112;2024-01-15T12:01:51;7.40;;;3.10;;
68951;SDS011;56000;51.146;17.112;2024-01-15T12:04:25;9.20;;;3.40;;
68951;SDS011;56000;51.146;17.112;2024-01-15T12:06:57;6.90;;;3.20;;
68951;SDS011;56000;51.146;17.112;2024-01-15T12:09:31;8.90;;;3.10;;
68951;SDS011;56000;51.146;17.112;2024-01-15T12:12:07;7.10;;;3.20;;
68951;SDS011;56000;51.146;17.112;2024-01-15T12:14:47;5.90;;;3.00;;
68951;SDS011;56000;51.146;17.112;2024-01-15T12:17:19;5.70;;;2.90;;
68951;SDS011;56000;51.146;17.112;2024-01-15T12:19:53;7.70;;;2.90;;
68951;SDS011;56000;51.146;17.112;2024-01-15T12:22:27;13.50;;;3.80;;
68951;SDS011;56000;51.146;17.112;2024-01-15T12:25:18;6.00;;;2.80;;
68951;SDS011;56000;51.146;17.112;2024-01-15T12:27:51;7.30;;;3.30;;
68951;SDS011;56000;51.146;17.112;2024-01-15T12:30:25;6.20;;;3.40;;
68951;SDS011;56000;51.146;17.112;2024-01-15T12:32:59;8.90;;;2.90;;
68951;SDS011;56000;51.146;17.112;2024-01-15T12:35:35;6.40;;;3.20;;
68951;SDS011;56000;51.146;17.112;2024-01-15T12:38:07;4.90;;;2.80;;
68951;SDS011;56000;51.146;17.112;2024-01-15T12:40:43;5.20;;;2.50;;
68951;SDS011;56000;51.146;17.112;2024-01-15T12:43:17;7.80;;;3.30;;
68951;SDS011;56000;51.146;17.112;2024-01-15T12:45:50;5.20;;;2.80;;
68951;SDS011;56000;51.146;17.112;2024-01-15T12:48:23;5.40;;;3.20;;
68951;SDS011;56000;51.146;17.112;2024-01-15T12:50:56;7.40;;;3.00;;
68951;SDS011;56000;51.146;17.112;2024-01-15T12:53:29;7.80;;;3.00;;
68951;SDS011;56000;51.146;17.112;2024-01-15T12:56:02;7.40;;;3.00;;
68951;SDS011;56000;51.146;17.112;2024-01-15T12:58:35;5.80;;;2.50;;
68951;SDS011;56000;51.146;17.112;2024-01-15T13:01:07;6.80;;;3.20;;
68951;SDS011;56000;51.146;17.112;2024-01-15T13:03:40;7.20;;;2.70;;
68951;SDS011;56000;51.146;17.112;2024-01-15T13:06:14;4.90;;;2.40;;
68951;SDS011;56000;51.146;17.112;2024-01-15T13:08:46;6.50;;;2.70;;
68951;SDS011;56000;51.146;17.112;2024-01-15T13:11:19;10.50;;;3.50;;
68951;SDS011;56000;51.146;17.112;2024-01-15T13:13:52;9.20;;;3.30;;
68951;SDS011;56000;51.146;17.112;2024-01-15T13:16:25;9.60;;;3.10;;
68951;SDS011;56000;51.146;17.112;2024-01-15T13:18:59;6.60;;;3.00;;
68951;SDS011;56000;51.146;17.112;2024-01-15T13:21:33;6.10;;;2.80;;
68951;SDS011;56000;51.146;17.112;2024-01-15T13:24:07;6.90;;;2.50;;
68951;SDS011;56000;51.146;17.112;2024-01-15T13:26:41;7.80;;;3.20;;
68951;SDS011;56000;51.146;17.112;2024-01-15T13:29:14;10.70;;;3.60;;
68951;SDS011;56000;51.146;17.112;2024-01-15T13:31:47;7.00;;;3.30;;
68951;SDS011;56000;51.146;17.112;2024-01-15T13:34:20;5.80;;;2.50;;
68951;SDS011;56000;51.146;17.112;2024-01-15T13:36:53;8.30;;;3.10;;
68951;SDS011;56000;51.146;17.112;2024-01-15T13:39:25;5.60;;;2.90;;
68951;SDS011;56000;51.146;17.112;2024-01-15T13:42:03;9.00;;;3.60;;
68951;SDS011;56000;51.146;17.112;2024-01-15T13:44:36;7.70;;;3.50;;
68951;SDS011;56000;51.146;17.112;2024-01-15T13:47:09;6.80;;;3.50;;
68951;SDS011;56000;51.146;17.112;2024-01-15T13:49:42;7.30;;;3.20;;
68951;SDS011;56000;51.146;17.112;2024-01-15T13:52:15;12.50;;;3.60;;
68951;SDS011;56000;51.146;17.112;2024-01-15T13:54:48;8.10;;;3.40;;
68951;SDS011;56000;51.146;17.112;2024-01-15T13:57:21;11.50;;;3.20;;
68951;SDS011;56000;51.146;17.112;2024-01-15T13:59:54;5.70;;;2.90;;
68951;SDS011;56000;51.146;17.112;2024-01-15T14:02:26;11.80;;;3.30;;
68951;SDS011;56000;51.146;17.112;2024-01-15T14:04:59;10.20;;;3.50;;
68951;SDS011;56000;51.146;17.112;2024-01-15T14:07:32;7.40;;;3.30;;
68951;SDS011;56000;51.146;17.112;2024-01-15T14:10:06;8.20;;;3.80;;
68951;SDS011;56000;51.146;17.112;2024-01-15T14:12:40;7.10;;;3.50;;
68951;SDS011;56000;51.146;17.112;2024-01-15T14:15:12;9.20;;;5.00;;
68951;SDS011;56000;51.146;17.112;2024-01-15T14:17:45;5.50;;;2.70;;
68951;SDS011;56000;51.146;17.112;2024-01-15T14:20:18;8.00;;;3.60;;
68951;SDS011;56000;51.146;17.112;2024-01-15T14:22:51;7.00;;;3.10;;
68951;SDS011;56000;51.146;17.112;2024-01-15T14:25:24;8.30;;;3.50;;
68951;SDS011;56000;51.146;17.112;2024-01-15T14:27:57;5.70;;;2.80;;
68951;SDS011;56000;51.146;17.112;2024-01-15T14:30:30;7.30;;;3.00;;
68951;SDS011;56000;51.146;17.112;2024-01-15T14:33:03;7.40;;;3.50;;
68951;SDS011;56000;51.146;17.112;2024-01-15T14:35:36;5.50;;;3.00;;
68951;SDS011;56000;51.146;17.112;2024-01-15T14:38:09;7.10;;;2.60;;
68951;SDS011;56000;51.146;17.112;2024-01-15T14:40:42;6.60;;;2.90;;
68951;SDS011;56000;51.146;17.112;2024-01-15T14:43:15;9.40;;;3.60;;
68951;SDS011;56000;51.146;17.112;2024-01-15T14:45:48;7.90;;;3.10;;
68951;SDS011;56000;51.146;17.112;2024-01-15T14:48:21;7.00;;;2.90;;
68951;SDS011;56000;51.146;17.112;2024-01-15T14:50:54;5.90;;;3.00;;
68951;SDS011;56000;51.146;17.112;2024-01-15T14:53:26;6.60;;;2.90;;
68951;SDS011;56000;51.146;17.112;2024-01-15T14:55:59;21.50;;;6.10;;
68951;SDS011;56000;51.146;17.112;2024-01-15T14:58:32;7.80;;;2.90;;
68951;SDS011;56000;51.146;17.112;2024-01-15T15:01:05;7.10;;;2.80;;
68951;SDS011;56000;51.146;17.112;2024-01-15T15:03:38;11.30;;;3.30;;
68951;SDS011;56000;51.146;17.112;2024-01-15T15:06:11;4.30;;;2.30;;